createdAt,value
2022-10-14T00:00:42.707Z,100.00
2022-10-14T00:05:45.331Z,100.00
2022-10-14T00:10:48.320Z,100.00
2022-10-14T00:15:52.248Z,100.00
2022-10-14T00:20:56.072Z,100.00
2022-10-14T00:25:59.177Z,100.00
2022-10-14T00:31:07.455Z,100.00
2022-10-14T00:36:12.757Z,100.00
2022-10-14T00:41:17.808Z,100.00
2022-10-14T00:46:23.483Z,100.00
2022-10-14T00:51:31.784Z,100.00
2022-10-14T00:56:34.915Z,100.00
2022-10-14T01:01:40.514Z,100.00
2022-10-14T01:06:48.668Z,100.00
2022-10-14T01:12:26.852Z,100.00
2022-10-14T01:17:31.463Z,100.00
2022-10-14T01:22:37.366Z,100.00
2022-10-14T01:28:00.438Z,100.00
2022-10-14T01:33:10.123Z,100.00
2022-10-14T01:38:16.095Z,100.00
2022-10-14T01:43:19.219Z,100.00
2022-10-14T01:48:26.018Z,100.00
2022-10-14T01:53:31.600Z,100.00
2022-10-14T01:58:35.275Z,100.00
2022-10-14T02:03:42.050Z,100.00
2022-10-14T02:08:57.223Z,100.00
2022-10-14T02:14:07.718Z,100.00
2022-10-14T02:19:21.347Z,100.00
2022-10-14T02:24:28.066Z,100.00
2022-10-14T02:29:32.119Z,100.00
2022-10-14T02:34:37.642Z,100.00
2022-10-14T02:39:46.038Z,100.00
2022-10-14T02:44:55.424Z,100.00
2022-10-14T02:49:59.356Z,100.00
2022-10-14T02:55:01.939Z,100.00
2022-10-14T03:00:05.745Z,100.00
2022-10-14T03:05:11.675Z,100.00
2022-10-14T03:10:15.560Z,100.00
2022-10-14T03:15:18.418Z,100.00
2022-10-14T03:20:23.667Z,100.00
2022-10-14T03:25:31.766Z,100.00
2022-10-14T03:30:44.791Z,100.00
2022-10-14T03:35:53.706Z,100.00
2022-10-14T03:41:04.651Z,100.00
2022-10-14T03:46:07.875Z,100.00
2022-10-14T03:51:12.683Z,100.00
2022-10-14T03:56:18.057Z,100.00
2022-10-14T04:01:21.546Z,100.00
2022-10-14T04:06:49.392Z,100.00
2022-10-14T04:11:55.907Z,100.00
2022-10-14T04:17:14.613Z,100.00
2022-10-14T04:22:22.952Z,100.00
2022-10-14T04:27:30.092Z,100.00
2022-10-14T04:32:38.437Z,100.00
2022-10-14T04:37:43.722Z,100.00
2022-10-14T04:42:57.315Z,100.00
2022-10-14T04:48:05.576Z,100.00
2022-10-14T04:53:17.546Z,100.00
2022-10-14T04:58:34.694Z,100.00
2022-10-14T05:03:37.502Z,100.00
2022-10-14T05:08:41.794Z,100.00
2022-10-14T05:13:47.556Z,100.00
2022-10-14T05:18:51.232Z,100.00
2022-10-14T05:23:55.455Z,100.00
2022-10-14T05:28:59.442Z,100.00
2022-10-14T05:34:02.152Z,100.00
2022-10-14T05:39:09.522Z,100.00
2022-10-14T05:44:13.191Z,100.00
2022-10-14T05:49:15.951Z,100.00
2022-10-14T05:54:21.162Z,100.00
2022-10-14T05:59:29.547Z,100.00
2022-10-14T06:04:33.333Z,100.00
2022-10-14T06:09:40.522Z,100.00
2022-10-14T06:14:45.002Z,100.00
2022-10-14T06:19:47.592Z,100.00
2022-10-14T06:24:51.524Z,100.00
2022-10-14T06:29:54.076Z,100.00
2022-10-14T06:34:56.627Z,100.00
2022-10-14T06:40:00.759Z,100.00
2022-10-14T06:45:03.339Z,100.00
2022-10-14T06:50:06.501Z,100.00
2022-10-14T06:55:10.626Z,100.00
2022-10-14T07:00:13.883Z,100.00
2022-10-14T07:05:16.942Z,100.00
2022-10-14T07:10:20.855Z,100.00
2022-10-14T07:15:23.447Z,100.00
2022-10-14T07:20:26.012Z,100.00
2022-10-14T07:25:29.902Z,100.00
2022-10-14T07:30:32.535Z,100.00
2022-10-14T07:35:35.448Z,100.00
2022-10-14T07:40:39.538Z,100.00
2022-10-14T07:45:44.025Z,100.00
2022-10-14T07:50:50.754Z,100.00
2022-10-14T07:55:57.927Z,100.00
2022-10-14T08:01:00.506Z,100.00
2022-10-14T08:06:05.277Z,100.00
2022-10-14T08:11:11.618Z,100.00
2022-10-14T08:16:16.183Z,100.00
2022-10-14T08:21:19.369Z,100.00
2022-10-14T08:26:24.636Z,100.00
2022-10-14T08:31:27.238Z,100.00
2022-10-14T08:36:29.845Z,100.00
2022-10-14T08:42:05.834Z,100.00
2022-10-14T08:47:13.037Z,100.00
2022-10-14T08:52:19.064Z,100.00
2022-10-14T08:57:26.600Z,100.00
2022-10-14T09:02:36.791Z,100.00
2022-10-14T09:07:39.459Z,99.17
2022-10-14T09:12:43.806Z,97.40
2022-10-14T09:17:50.905Z,95.89
2022-10-14T09:22:59.474Z,94.24
2022-10-14T09:28:04.531Z,96.54
2022-10-14T09:33:07.701Z,96.67
2022-10-14T09:38:11.538Z,97.28
2022-10-14T09:43:18.516Z,96.13
2022-10-14T09:48:32.252Z,96.41
2022-10-14T09:53:38.423Z,99.30
2022-10-14T09:58:44.515Z,97.94
2022-10-14T10:03:47.937Z,100.00
2022-10-14T10:08:58.435Z,99.35
2022-10-14T10:14:17.359Z,100.00
2022-10-14T10:19:28.666Z,100.00
2022-10-14T10:24:32.243Z,100.00
2022-10-14T10:29:36.229Z,100.00
2022-10-14T10:35:04.528Z,100.00
2022-10-14T10:40:20.064Z,100.00
2022-10-14T10:45:35.591Z,100.00
2022-10-14T10:50:45.258Z,100.00
2022-10-14T10:55:56.175Z,100.00
2022-10-14T11:01:02.936Z,100.00
2022-10-14T11:06:08.181Z,100.00
2022-10-14T11:11:31.334Z,100.00
2022-10-14T11:16:38.986Z,100.00
2022-10-14T11:21:45.170Z,100.00
2022-10-14T11:26:57.601Z,100.00
2022-10-14T11:32:07.612Z,100.00
2022-10-14T11:37:17.588Z,100.00
2022-10-14T11:42:27.104Z,100.00
2022-10-14T11:47:37.008Z,100.00
2022-10-14T11:52:41.183Z,100.00
2022-10-14T11:57:46.458Z,100.00
2022-10-14T12:02:54.125Z,100.00
2022-10-14T12:08:03.868Z,100.00
2022-10-14T12:13:09.174Z,100.00
2022-10-14T12:18:13.275Z,100.00
2022-10-14T12:23:32.732Z,100.00
2022-10-14T12:28:35.821Z,100.00
2022-10-14T12:34:18.825Z,100.00
2022-10-14T12:39:35.559Z,100.00
2022-10-14T12:44:43.368Z,100.00
2022-10-14T12:49:50.994Z,100.00
2022-10-14T12:54:54.009Z,100.00
2022-10-14T12:59:58.676Z,100.00
2022-10-14T13:05:06.710Z,100.00
2022-10-14T13:10:28.576Z,100.00
2022-10-14T13:15:38.826Z,100.00
2022-10-14T13:20:53.644Z,100.00
2022-10-14T13:26:01.786Z,100.00
2022-10-14T13:31:06.507Z,100.00
2022-10-14T13:36:16.519Z,100.00
2022-10-14T13:41:30.765Z,100.00
2022-10-14T13:46:37.565Z,100.00
2022-10-14T13:51:50.781Z,100.00
2022-10-14T13:57:34.554Z,100.00
2022-10-14T14:02:27.212Z,100.00
2022-10-14T14:08:21.767Z,100.00
2022-10-14T14:12:57.432Z,100.00
2022-10-14T14:17:59.979Z,100.00
2022-10-14T14:23:04.794Z,100.00
2022-10-14T14:28:07.338Z,100.00
2022-10-14T14:33:13.031Z,100.00
2022-10-14T14:38:27.691Z,100.00
2022-10-14T14:43:35.855Z,100.00
2022-10-14T14:48:42.112Z,100.00
2022-10-14T14:53:54.403Z,100.00
2022-10-14T14:58:58.991Z,100.00
2022-10-14T15:04:11.893Z,100.00
2022-10-14T15:09:23.874Z,100.00
2022-10-14T15:14:33.978Z,100.00
2022-10-14T15:19:38.786Z,100.00
2022-10-14T15:25:01.301Z,100.00
2022-10-14T15:30:23.893Z,100.00
2022-10-14T15:35:26.835Z,100.00
2022-10-14T15:40:32.086Z,100.00
2022-10-14T15:45:34.643Z,100.00
2022-10-14T15:50:39.401Z,100.00
2022-10-14T15:55:44.069Z,100.00
2022-10-14T16:00:47.413Z,100.00
2022-10-14T16:05:50.064Z,100.00
2022-10-14T16:10:54.982Z,100.00
2022-10-14T16:16:00.089Z,100.00
2022-10-14T16:21:02.624Z,100.00
2022-10-14T16:26:07.443Z,100.00
2022-10-14T16:31:10.330Z,100.00
2022-10-14T16:36:15.169Z,100.00
2022-10-14T16:41:19.040Z,100.00
2022-10-14T16:46:41.587Z,100.00
2022-10-14T16:51:44.898Z,100.00
2022-10-14T16:56:54.526Z,100.00
2022-10-14T17:01:57.296Z,100.00
2022-10-14T17:07:06.861Z,100.00
2022-10-14T17:12:13.812Z,100.00
2022-10-14T17:17:16.797Z,100.00
2022-10-14T17:22:20.825Z,100.00
2022-10-14T17:27:25.046Z,100.00
2022-10-14T17:32:28.577Z,100.00
2022-10-14T17:37:31.379Z,100.00
2022-10-14T17:42:35.256Z,100.00
2022-10-14T17:47:37.793Z,100.00
2022-10-14T17:52:40.333Z,100.00
2022-10-14T17:57:44.260Z,100.00
2022-10-14T18:02:46.832Z,100.00
2022-10-14T18:07:49.418Z,100.00
2022-10-14T18:12:54.283Z,100.00
2022-10-14T18:17:57.305Z,100.00
2022-10-14T18:23:03.073Z,100.00
2022-10-14T18:28:07.002Z,100.00
2022-10-14T18:33:09.554Z,100.00
2022-10-14T18:38:12.090Z,100.00
2022-10-14T18:43:15.996Z,100.00
2022-10-14T18:48:21.878Z,100.00
2022-10-14T18:53:24.574Z,100.00
2022-10-14T18:58:28.483Z,100.00
2022-10-14T19:03:32.526Z,100.00
2022-10-14T19:08:36.949Z,100.00
2022-10-14T19:13:41.659Z,100.00
2022-10-14T19:18:44.267Z,100.00
2022-10-14T19:23:47.061Z,100.00
2022-10-14T19:28:52.037Z,100.00
2022-10-14T19:33:55.683Z,100.00
2022-10-14T19:38:59.449Z,100.00
2022-10-14T19:44:03.484Z,100.00
2022-10-14T19:49:06.453Z,100.00
2022-10-14T19:54:10.427Z,100.00
2022-10-14T19:59:14.785Z,100.00
2022-10-14T20:04:20.788Z,100.00
2022-10-14T20:09:25.352Z,100.00
2022-10-14T20:14:30.297Z,100.00
2022-10-14T20:19:32.870Z,100.00
2022-10-14T20:24:39.772Z,100.00
2022-10-14T20:29:43.714Z,100.00
2022-10-14T20:34:46.334Z,100.00
2022-10-14T20:39:49.411Z,100.00
2022-10-14T20:44:53.297Z,100.00
2022-10-14T20:49:55.927Z,100.00
2022-10-14T20:54:58.522Z,100.00
2022-10-14T21:00:02.544Z,100.00
2022-10-14T21:05:05.542Z,100.00
2022-10-14T21:10:09.216Z,100.00
2022-10-14T21:15:13.591Z,100.00
2022-10-14T21:20:16.349Z,100.00
2022-10-14T21:25:18.942Z,100.00
2022-10-14T21:30:22.879Z,100.00
2022-10-14T21:35:25.703Z,100.00
2022-10-14T21:40:28.314Z,100.00
2022-10-14T21:45:32.381Z,100.00
2022-10-14T21:50:35.002Z,100.00
2022-10-14T21:55:37.593Z,100.00
2022-10-14T22:00:41.518Z,100.00
2022-10-14T22:05:44.236Z,100.00
2022-10-14T22:10:47.619Z,100.00
2022-10-14T22:15:51.573Z,100.00
2022-10-14T22:21:04.823Z,100.00
2022-10-14T22:26:08.575Z,100.00
2022-10-14T22:31:14.142Z,100.00
2022-10-14T22:36:21.109Z,100.00
2022-10-14T22:41:30.981Z,100.00
2022-10-14T22:46:39.068Z,100.00
2022-10-14T22:51:42.062Z,100.00
2022-10-14T22:56:44.703Z,100.00
2022-10-14T23:01:48.790Z,100.00
2022-10-14T23:06:51.696Z,100.00
2022-10-14T23:11:54.304Z,100.00
2022-10-14T23:16:58.221Z,100.00
2022-10-14T23:22:00.806Z,100.00
2022-10-14T23:27:03.378Z,100.00
2022-10-14T23:32:07.431Z,100.00
2022-10-14T23:37:10.088Z,100.00
2022-10-14T23:42:12.667Z,100.00
2022-10-14T23:47:16.815Z,100.00
2022-10-14T23:52:19.381Z,100.00
2022-10-14T23:57:22.148Z,100.00
